createdAt,value
2022-10-06T00:00:43.390Z,84.67
2022-10-06T00:03:14.154Z,85.23
2022-10-06T00:05:45.366Z,85.17
2022-10-06T00:08:15.904Z,85.15
2022-10-06T00:10:46.260Z,84.82
2022-10-06T00:13:16.612Z,84.60
2022-10-06T00:15:47.146Z,84.01
2022-10-06T00:18:17.681Z,83.77
2022-10-06T00:20:55.057Z,83.52
2022-10-06T00:23:26.064Z,83.63
2022-10-06T00:25:58.607Z,83.80
2022-10-06T00:28:29.596Z,83.82
2022-10-06T00:31:05.170Z,84.15
2022-10-06T00:33:37.266Z,84.82
2022-10-06T00:36:12.835Z,85.11
2022-10-06T00:38:43.250Z,85.21
2022-10-06T00:41:17.761Z,85.65
2022-10-06T00:43:58.641Z,85.64
2022-10-06T00:46:34.965Z,85.54
2022-10-06T00:49:11.974Z,85.37
2022-10-06T00:51:46.665Z,85.31
2022-10-06T00:54:18.329Z,85.14
2022-10-06T00:56:49.060Z,85.10
2022-10-06T00:59:21.533Z,84.88
2022-10-06T01:01:58.045Z,84.83
2022-10-06T01:04:31.539Z,84.54
2022-10-06T01:07:03.351Z,84.47
2022-10-06T01:09:34.848Z,84.44
2022-10-06T01:12:05.194Z,84.42
2022-10-06T01:14:38.741Z,84.37
2022-10-06T01:17:14.838Z,84.35
2022-10-06T01:19:51.730Z,84.41
2022-10-06T01:22:29.270Z,84.52
2022-10-06T01:25:00.548Z,84.57
2022-10-06T01:27:34.402Z,84.91
2022-10-06T01:30:06.287Z,84.85
2022-10-06T01:32:39.971Z,85.05
2022-10-06T01:35:13.154Z,85.46
2022-10-06T01:37:43.920Z,85.74
2022-10-06T01:40:14.615Z,86.29
2022-10-06T01:42:45.228Z,86.60
2022-10-06T01:45:15.749Z,87.09
2022-10-06T01:47:46.338Z,87.44
2022-10-06T01:50:17.136Z,87.47
2022-10-06T01:52:47.797Z,87.64
2022-10-06T01:55:19.364Z,87.92
2022-10-06T01:57:53.070Z,87.77
2022-10-06T02:00:25.437Z,87.30
2022-10-06T02:02:56.377Z,87.34
2022-10-06T02:05:26.831Z,87.20
2022-10-06T02:07:58.678Z,87.20
2022-10-06T02:10:29.262Z,87.34
2022-10-06T02:13:01.142Z,87.58
2022-10-06T02:15:33.345Z,87.93
2022-10-06T02:18:04.163Z,88.07
2022-10-06T02:20:34.686Z,88.31
2022-10-06T02:23:05.112Z,87.95
2022-10-06T02:25:35.669Z,88.01
2022-10-06T02:28:17.768Z,87.71
2022-10-06T02:30:48.787Z,87.72
2022-10-06T02:33:21.091Z,87.29
2022-10-06T02:35:56.740Z,87.30
2022-10-06T02:38:28.982Z,87.09
2022-10-06T02:41:03.948Z,87.05
2022-10-06T02:43:35.145Z,86.65
2022-10-06T02:46:08.104Z,86.54
2022-10-06T02:48:39.812Z,86.24
2022-10-06T02:51:15.443Z,86.33
2022-10-06T02:53:48.437Z,85.88
2022-10-06T02:56:21.016Z,85.63
2022-10-06T02:58:53.089Z,85.50
2022-10-06T03:01:35.694Z,85.39
2022-10-06T03:04:12.751Z,84.99
2022-10-06T03:06:44.631Z,85.09
2022-10-06T03:09:21.389Z,84.82
2022-10-06T03:11:52.141Z,84.90
2022-10-06T03:14:33.779Z,84.58
2022-10-06T03:17:04.454Z,84.39
2022-10-06T03:19:35.260Z,83.93
2022-10-06T03:22:10.555Z,83.89
2022-10-06T03:24:48.950Z,83.71
2022-10-06T03:27:19.654Z,83.86
2022-10-06T03:29:51.513Z,83.99
2022-10-06T03:32:24.034Z,84.39
2022-10-06T03:34:54.701Z,84.73
2022-10-06T03:37:25.297Z,84.95
2022-10-06T03:39:55.853Z,85.13
2022-10-06T03:42:27.637Z,85.22
2022-10-06T03:44:58.915Z,85.47
2022-10-06T03:47:32.419Z,85.73
2022-10-06T03:50:04.501Z,85.75
2022-10-06T03:52:35.864Z,86.02
2022-10-06T03:55:11.579Z,86.14
2022-10-06T03:57:46.462Z,86.24
2022-10-06T04:00:18.025Z,86.42
2022-10-06T04:02:50.746Z,86.09
2022-10-06T04:05:21.184Z,86.56
2022-10-06T04:07:51.878Z,86.36
2022-10-06T04:10:22.417Z,86.07
2022-10-06T04:12:53.654Z,84.94
2022-10-06T04:15:26.720Z,84.56
2022-10-06T04:17:59.575Z,84.30
2022-10-06T04:20:30.019Z,84.03
2022-10-06T04:23:00.710Z,83.85
2022-10-06T04:25:31.174Z,83.40
2022-10-06T04:28:02.822Z,83.43
2022-10-06T04:30:33.533Z,83.08
2022-10-06T04:33:07.741Z,83.04
2022-10-06T04:35:38.410Z,83.26
2022-10-06T04:38:09.411Z,83.60
2022-10-06T04:40:39.859Z,83.39
2022-10-06T04:43:11.287Z,82.90
2022-10-06T04:45:40.311Z,83.25
2022-10-06T04:48:10.876Z,83.15
2022-10-06T04:50:41.400Z,82.93
2022-10-06T04:53:14.412Z,83.02
2022-10-06T04:55:45.917Z,82.96
2022-10-06T04:58:16.675Z,83.17
2022-10-06T05:00:49.601Z,83.39
2022-10-06T05:03:20.389Z,83.42
2022-10-06T05:05:51.097Z,83.65
2022-10-06T05:08:21.740Z,83.40
2022-10-06T05:10:59.847Z,82.64
2022-10-06T05:13:31.534Z,82.55
2022-10-06T05:16:03.971Z,82.41
2022-10-06T05:18:39.418Z,82.25
2022-10-06T05:21:16.953Z,82.40
2022-10-06T05:23:48.489Z,81.72
2022-10-06T05:26:21.849Z,81.74
2022-10-06T05:28:52.939Z,81.96
2022-10-06T05:31:26.793Z,82.31
2022-10-06T05:33:58.953Z,82.14
2022-10-06T05:36:33.985Z,81.99
2022-10-06T05:39:05.454Z,82.65
2022-10-06T05:41:44.423Z,83.25
2022-10-06T05:44:17.862Z,83.48
2022-10-06T05:46:53.250Z,83.95
2022-10-06T05:49:24.131Z,84.18
2022-10-06T05:51:59.207Z,84.65
2022-10-06T05:54:32.209Z,85.05
2022-10-06T05:57:03.062Z,85.55
2022-10-06T05:59:35.476Z,86.23
2022-10-06T06:02:07.906Z,86.54
2022-10-06T06:04:44.297Z,87.12
2022-10-06T06:07:15.024Z,87.19
2022-10-06T06:09:47.417Z,87.65
2022-10-06T06:12:17.938Z,87.41
2022-10-06T06:15:15.375Z,87.75
2022-10-06T06:17:51.567Z,88.05
2022-10-06T06:20:22.245Z,88.20
2022-10-06T06:22:55.995Z,88.32
2022-10-06T06:25:30.269Z,88.56
2022-10-06T06:28:01.131Z,88.94
2022-10-06T06:30:32.644Z,89.48
2022-10-06T06:33:03.443Z,89.33
2022-10-06T06:35:34.870Z,88.46
2022-10-06T06:38:11.536Z,87.79
2022-10-06T06:40:44.985Z,86.62
2022-10-06T06:43:16.304Z,84.86
2022-10-06T06:46:07.477Z,84.38
2022-10-06T06:48:56.691Z,83.40
2022-10-06T06:51:27.720Z,82.90
2022-10-06T06:53:59.426Z,82.62
2022-10-06T06:56:35.222Z,81.57
2022-10-06T06:59:11.920Z,81.73
2022-10-06T07:01:47.591Z,80.40
2022-10-06T07:04:21.800Z,80.35
2022-10-06T07:06:58.374Z,79.52
2022-10-06T07:09:34.451Z,78.34
2022-10-06T07:12:08.969Z,78.32
2022-10-06T07:14:59.638Z,78.73
2022-10-06T07:17:49.538Z,78.05
2022-10-06T07:20:38.261Z,76.68
2022-10-06T07:23:27.357Z,74.49
2022-10-06T07:25:58.805Z,75.49
2022-10-06T07:28:30.654Z,75.54
2022-10-06T07:31:04.997Z,75.33
2022-10-06T07:33:37.057Z,75.00
2022-10-06T07:36:09.090Z,74.92
2022-10-06T07:38:41.688Z,75.45
2022-10-06T07:41:19.291Z,75.14
2022-10-06T07:43:53.725Z,74.97
2022-10-06T07:46:25.365Z,73.52
2022-10-06T07:49:07.084Z,73.29
2022-10-06T07:51:37.988Z,73.32
2022-10-06T07:54:09.433Z,73.58
2022-10-06T07:57:03.256Z,73.32
2022-10-06T07:59:34.736Z,72.92
2022-10-06T08:02:05.585Z,71.70
2022-10-06T08:04:36.396Z,72.02
2022-10-06T08:07:10.357Z,70.80
2022-10-06T08:09:41.032Z,70.08
2022-10-06T08:12:25.402Z,69.26
2022-10-06T08:14:56.304Z,68.81
2022-10-06T08:17:25.509Z,68.20
2022-10-06T08:19:56.331Z,65.92
2022-10-06T08:22:29.947Z,65.24
2022-10-06T08:25:06.286Z,66.13
2022-10-06T08:27:38.622Z,66.28
2022-10-06T08:30:11.188Z,65.91
2022-10-06T08:32:43.412Z,65.96
2022-10-06T08:35:14.655Z,65.45
2022-10-06T08:37:43.664Z,64.82
2022-10-06T08:40:16.176Z,64.84
2022-10-06T08:42:51.173Z,62.49
2022-10-06T08:45:25.628Z,60.09
2022-10-06T08:48:02.652Z,59.19
2022-10-06T08:50:41.632Z,59.11
2022-10-06T08:53:17.670Z,57.66
2022-10-06T08:55:54.796Z,56.80
2022-10-06T08:58:47.169Z,57.00
2022-10-06T09:01:23.578Z,56.89
2022-10-06T09:04:01.778Z,56.21
2022-10-06T09:06:46.979Z,55.57
2022-10-06T09:09:28.910Z,54.73
2022-10-06T09:12:12.301Z,54.53
2022-10-06T09:14:49.051Z,55.36
2022-10-06T09:17:27.203Z,54.46
2022-10-06T09:20:03.179Z,54.97
2022-10-06T09:22:36.524Z,53.79
2022-10-06T09:25:20.135Z,52.94
2022-10-06T09:27:54.508Z,52.45
2022-10-06T09:30:25.519Z,51.65
2022-10-06T09:33:00.455Z,52.39
2022-10-06T09:35:38.929Z,52.30
2022-10-06T09:38:12.801Z,51.91
2022-10-06T09:40:51.228Z,52.27
2022-10-06T09:43:27.169Z,50.78
2022-10-06T09:46:18.836Z,51.24
2022-10-06T09:48:49.265Z,50.70
2022-10-06T09:51:20.691Z,50.76
2022-10-06T09:54:08.244Z,50.22
2022-10-06T09:56:43.284Z,50.03
2022-10-06T09:59:22.980Z,50.51
2022-10-06T10:01:59.786Z,49.77
2022-10-06T10:04:33.302Z,50.00
2022-10-06T10:07:25.481Z,50.18
2022-10-06T10:10:16.611Z,50.67
2022-10-06T10:12:53.734Z,51.48
2022-10-06T10:15:32.982Z,51.61
2022-10-06T10:18:05.849Z,52.30
2022-10-06T10:20:39.938Z,52.09
2022-10-06T10:23:31.699Z,51.65
2022-10-06T10:26:20.110Z,50.97
2022-10-06T10:29:33.158Z,50.72
2022-10-06T10:32:12.005Z,51.20
2022-10-06T10:35:07.526Z,52.52
2022-10-06T10:37:43.490Z,50.90
2022-10-06T10:40:25.138Z,51.81
2022-10-06T10:43:03.758Z,52.09
2022-10-06T10:45:38.644Z,51.27
2022-10-06T10:48:15.915Z,50.29
2022-10-06T10:50:56.697Z,48.42
2022-10-06T10:53:42.710Z,48.34
2022-10-06T10:56:16.270Z,48.98
2022-10-06T10:58:49.246Z,49.03
2022-10-06T11:01:30.558Z,48.87
2022-10-06T11:04:00.884Z,47.65
2022-10-06T11:07:00.547Z,47.72
2022-10-06T11:09:42.206Z,47.38
2022-10-06T11:12:24.738Z,46.32
2022-10-06T11:15:01.677Z,45.57
2022-10-06T11:17:50.335Z,45.94
2022-10-06T11:20:46.012Z,45.29
2022-10-06T11:23:32.645Z,45.18
2022-10-06T11:26:12.342Z,43.94
2022-10-06T11:28:49.806Z,43.80
2022-10-06T11:31:34.141Z,42.35
2022-10-06T11:34:06.421Z,41.49
2022-10-06T11:36:49.837Z,42.21
2022-10-06T11:39:31.781Z,41.11
2022-10-06T11:42:11.471Z,41.44
2022-10-06T11:44:45.784Z,39.35
2022-10-06T11:47:35.156Z,40.39
2022-10-06T11:50:34.649Z,40.03
2022-10-06T11:53:06.555Z,39.08
2022-10-06T11:55:37.099Z,38.96
2022-10-06T11:58:41.289Z,37.74
2022-10-06T12:01:07.242Z,37.66
2022-10-06T12:04:14.682Z,36.86
2022-10-06T12:07:02.476Z,37.54
2022-10-06T12:09:52.073Z,36.11
2022-10-06T12:13:05.351Z,33.83
2022-10-06T12:19:05.986Z,32.51
2022-10-06T12:21:45.592Z,31.41
2022-10-06T12:24:27.569Z,32.83
2022-10-06T12:27:16.432Z,33.97
2022-10-06T12:29:53.430Z,34.93
2022-10-06T12:32:43.138Z,34.84
2022-10-06T12:35:24.979Z,33.46
2022-10-06T12:37:58.383Z,33.21
2022-10-06T12:40:47.819Z,32.70
2022-10-06T12:43:43.866Z,32.08
2022-10-06T12:46:26.734Z,31.06
2022-10-06T12:49:32.045Z,31.59
2022-10-06T12:52:10.231Z,31.40
2022-10-06T12:54:49.218Z,31.74
2022-10-06T12:57:21.758Z,31.29
2022-10-06T12:59:52.104Z,30.88
2022-10-06T13:02:24.856Z,31.64
2022-10-06T13:04:58.852Z,31.07
2022-10-06T13:07:32.268Z,32.30
2022-10-06T13:10:21.051Z,31.13
2022-10-06T13:12:52.671Z,32.39
2022-10-06T13:15:27.742Z,32.49
2022-10-06T13:18:04.680Z,31.62
2022-10-06T13:20:41.628Z,32.59
2022-10-06T13:23:28.209Z,32.09
2022-10-06T13:26:00.648Z,31.81
2022-10-06T13:28:49.606Z,32.77
2022-10-06T13:31:27.010Z,32.61
2022-10-06T13:34:00.994Z,31.75
2022-10-06T13:36:33.841Z,31.55
2022-10-06T13:39:06.302Z,31.87
2022-10-06T13:41:39.266Z,31.86
2022-10-06T13:44:28.401Z,31.47
2022-10-06T13:47:02.276Z,31.55
2022-10-06T13:49:37.275Z,31.97
2022-10-06T13:52:16.798Z,32.38
2022-10-06T13:54:51.932Z,32.13
2022-10-06T13:57:44.203Z,32.05
2022-10-06T14:00:25.906Z,31.42
2022-10-06T14:03:09.409Z,31.46
2022-10-06T14:05:41.779Z,32.64
2022-10-06T14:08:24.703Z,32.37
2022-10-06T14:10:58.617Z,32.18
2022-10-06T14:13:32.298Z,32.63
2022-10-06T14:16:06.499Z,33.54
2022-10-06T14:18:41.140Z,33.51
2022-10-06T14:21:30.111Z,32.89
2022-10-06T14:24:51.438Z,33.11
2022-10-06T14:27:21.775Z,33.22
2022-10-06T14:29:53.107Z,33.76
2022-10-06T14:32:23.614Z,33.54
2022-10-06T14:34:54.330Z,33.62
2022-10-06T14:37:24.601Z,33.14
2022-10-06T14:39:56.147Z,33.42
2022-10-06T14:42:27.109Z,32.76
2022-10-06T14:44:59.240Z,32.71
2022-10-06T14:47:31.625Z,32.93
2022-10-06T14:50:02.129Z,32.12
2022-10-06T14:52:32.599Z,32.21
2022-10-06T14:55:03.074Z,32.54
2022-10-06T14:57:33.649Z,32.44
2022-10-06T15:00:05.500Z,32.47
2022-10-06T15:02:36.255Z,32.32
2022-10-06T15:05:07.514Z,31.96
2022-10-06T15:07:55.439Z,30.70
2022-10-06T15:10:25.849Z,31.63
2022-10-06T15:12:56.994Z,32.22
2022-10-06T15:15:27.549Z,32.17
2022-10-06T15:17:58.070Z,32.17
2022-10-06T15:20:29.242Z,33.56
2022-10-06T15:23:00.274Z,33.09
2022-10-06T15:25:48.212Z,33.16
2022-10-06T15:28:36.198Z,33.14
2022-10-06T15:31:06.917Z,33.03
2022-10-06T15:33:37.333Z,33.17
2022-10-06T15:36:18.744Z,33.54
2022-10-06T15:38:49.551Z,32.90
2022-10-06T15:41:19.148Z,34.31
2022-10-06T15:43:57.410Z,33.98
2022-10-06T15:46:39.387Z,35.35
2022-10-06T15:49:12.114Z,36.65
2022-10-06T15:51:47.434Z,38.51
2022-10-06T15:54:20.259Z,39.85
2022-10-06T15:56:52.281Z,40.60
2022-10-06T15:59:24.931Z,42.38
2022-10-06T16:01:57.873Z,43.83
2022-10-06T16:04:35.395Z,44.61
2022-10-06T16:07:07.398Z,45.70
2022-10-06T16:09:43.435Z,47.23
2022-10-06T16:12:17.300Z,48.09
2022-10-06T16:14:48.335Z,48.95
2022-10-06T16:17:22.379Z,49.91
2022-10-06T16:19:52.917Z,50.73
2022-10-06T16:22:23.509Z,52.09
2022-10-06T16:24:54.544Z,53.69
2022-10-06T16:27:25.007Z,55.36
2022-10-06T16:29:55.829Z,56.53
2022-10-06T16:32:26.491Z,57.66
2022-10-06T16:34:56.953Z,58.54
2022-10-06T16:37:27.339Z,59.36
2022-10-06T16:39:57.718Z,60.18
2022-10-06T16:42:28.173Z,60.77
2022-10-06T16:44:58.772Z,61.68
2022-10-06T16:47:29.203Z,62.45
2022-10-06T16:49:59.568Z,63.58
2022-10-06T16:52:29.918Z,64.81
2022-10-06T16:55:01.741Z,64.89
2022-10-06T16:57:32.108Z,65.86
2022-10-06T17:00:05.835Z,66.59
2022-10-06T17:02:36.897Z,67.80
2022-10-06T17:05:08.402Z,68.37
2022-10-06T17:07:39.005Z,69.71
2022-10-06T17:10:25.835Z,70.43
2022-10-06T17:12:56.372Z,71.50
2022-10-06T17:15:30.109Z,71.57
2022-10-06T17:18:03.805Z,71.95
2022-10-06T17:20:34.166Z,72.67
2022-10-06T17:23:04.552Z,72.90
2022-10-06T17:25:35.232Z,73.28
2022-10-06T17:28:07.019Z,74.16
2022-10-06T17:30:37.430Z,74.45
2022-10-06T17:33:07.923Z,75.58
2022-10-06T17:35:40.689Z,75.81
2022-10-06T17:38:11.060Z,75.85
2022-10-06T17:40:46.290Z,76.71
2022-10-06T17:43:17.020Z,76.97
2022-10-06T17:45:47.772Z,77.83
2022-10-06T17:48:18.179Z,78.18
2022-10-06T17:50:59.586Z,78.48
2022-10-06T17:53:29.985Z,78.88
2022-10-06T17:56:06.295Z,79.03
2022-10-06T17:58:37.057Z,79.25
2022-10-06T18:01:17.665Z,79.45
2022-10-06T18:03:48.568Z,79.52
2022-10-06T18:06:20.115Z,80.03
2022-10-06T18:08:51.162Z,80.21
2022-10-06T18:11:38.424Z,80.43
2022-10-06T18:14:11.616Z,80.93
2022-10-06T18:16:45.279Z,81.06
2022-10-06T18:19:17.867Z,82.11
2022-10-06T18:21:49.673Z,82.32
2022-10-06T18:24:21.869Z,82.15
2022-10-06T18:26:54.181Z,82.23
2022-10-06T18:29:28.069Z,82.71
2022-10-06T18:32:15.086Z,83.33
2022-10-06T18:37:40.511Z,83.55
2022-10-06T18:40:14.814Z,83.74
2022-10-06T18:42:45.301Z,84.26
2022-10-06T18:45:39.154Z,84.16
2022-10-06T18:48:28.101Z,84.48
2022-10-06T18:51:05.018Z,85.84
2022-10-06T18:53:39.067Z,85.77
2022-10-06T18:56:10.750Z,86.04
2022-10-06T18:58:42.634Z,86.03
2022-10-06T19:01:16.674Z,86.28
2022-10-06T19:03:47.332Z,86.29
2022-10-06T19:06:17.859Z,85.92
2022-10-06T19:08:51.578Z,86.08
2022-10-06T19:11:39.469Z,86.43
2022-10-06T19:14:10.494Z,86.66
2022-10-06T19:16:41.300Z,86.57
2022-10-06T19:19:14.078Z,87.07
2022-10-06T19:21:46.474Z,87.61
2022-10-06T19:24:19.775Z,87.25
2022-10-06T19:26:52.457Z,87.33
2022-10-06T19:29:24.083Z,87.46
2022-10-06T19:31:57.478Z,87.69
2022-10-06T19:34:28.651Z,87.77
2022-10-06T19:36:59.463Z,87.85
2022-10-06T19:39:32.610Z,88.58
2022-10-06T19:42:20.930Z,88.70
2022-10-06T19:44:51.535Z,89.04
2022-10-06T19:47:22.210Z,89.15
2022-10-06T19:49:53.286Z,89.21
2022-10-06T19:52:25.615Z,88.92
2022-10-06T19:54:56.189Z,88.99
2022-10-06T19:57:28.780Z,89.70
2022-10-06T19:59:59.243Z,89.32
2022-10-06T20:02:29.766Z,89.44
2022-10-06T20:05:00.275Z,89.86
2022-10-06T20:07:30.625Z,89.76
2022-10-06T20:10:01.147Z,89.63
2022-10-06T20:12:33.628Z,89.65
2022-10-06T20:15:04.194Z,90.25
2022-10-06T20:17:34.806Z,90.34
2022-10-06T20:20:05.732Z,90.21
2022-10-06T20:22:36.667Z,90.54
2022-10-06T20:25:07.826Z,90.79
2022-10-06T20:27:38.366Z,90.97
2022-10-06T20:30:10.970Z,90.02
2022-10-06T20:32:41.684Z,90.01
2022-10-06T20:35:13.228Z,90.52
2022-10-06T20:37:43.832Z,90.42
2022-10-06T20:40:32.584Z,90.67
2022-10-06T20:43:03.060Z,90.83
2022-10-06T20:45:33.717Z,90.77
2022-10-06T20:48:04.172Z,90.67
2022-10-06T20:50:34.703Z,90.90
2022-10-06T20:53:05.270Z,90.70
2022-10-06T20:55:35.701Z,90.38
2022-10-06T20:58:06.213Z,90.23
2022-10-06T21:00:36.780Z,90.48
2022-10-06T21:03:08.794Z,90.96
2022-10-06T21:05:40.397Z,91.25
2022-10-06T21:08:11.875Z,91.15
2022-10-06T21:10:42.414Z,91.23
2022-10-06T21:13:12.744Z,91.44
2022-10-06T21:15:46.871Z,91.79
2022-10-06T21:18:17.374Z,92.13
2022-10-06T21:20:57.597Z,91.99
2022-10-06T21:23:28.915Z,92.53
2022-10-06T21:26:01.804Z,92.25
2022-10-06T21:28:32.306Z,92.63
2022-10-06T21:31:06.069Z,92.37
2022-10-06T21:33:41.456Z,92.86
2022-10-06T21:36:14.786Z,92.98
2022-10-06T21:38:47.332Z,93.45
2022-10-06T21:41:31.802Z,93.65
2022-10-06T21:44:04.036Z,93.63
2022-10-06T21:46:36.115Z,93.81
2022-10-06T21:49:10.036Z,93.82
2022-10-06T21:51:41.237Z,94.02
2022-10-06T21:54:12.585Z,94.42
2022-10-06T21:56:43.589Z,94.74
2022-10-06T21:59:14.345Z,94.74
2022-10-06T22:01:46.728Z,95.09
2022-10-06T22:04:17.845Z,95.50
2022-10-06T22:06:50.123Z,95.71
2022-10-06T22:09:21.594Z,95.78
2022-10-06T22:11:52.301Z,95.71
2022-10-06T22:14:22.789Z,95.94
2022-10-06T22:16:53.202Z,96.04
2022-10-06T22:19:23.645Z,96.01
2022-10-06T22:21:55.082Z,95.83
2022-10-06T22:24:24.069Z,95.99
2022-10-06T22:26:54.533Z,95.76
2022-10-06T22:29:24.884Z,96.00
2022-10-06T22:31:56.114Z,96.00
2022-10-06T22:34:27.160Z,95.79
2022-10-06T22:36:57.729Z,96.00
2022-10-06T22:39:28.134Z,95.73
2022-10-06T22:41:58.514Z,95.70
2022-10-06T22:44:29.149Z,96.09
2022-10-06T22:46:59.615Z,96.37
2022-10-06T22:49:30.190Z,96.06
2022-10-06T22:52:00.576Z,96.04
2022-10-06T22:54:32.290Z,96.28
2022-10-06T22:57:05.020Z,96.20
2022-10-06T22:59:35.415Z,95.97
2022-10-06T23:02:05.729Z,95.73
2022-10-06T23:04:36.198Z,95.61
2022-10-06T23:07:06.542Z,95.80
2022-10-06T23:09:38.200Z,95.55
2022-10-06T23:12:08.828Z,95.38
2022-10-06T23:14:39.340Z,95.26
2022-10-06T23:17:09.732Z,95.45
2022-10-06T23:19:40.173Z,95.50
2022-10-06T23:22:10.534Z,95.62
2022-10-06T23:24:40.986Z,95.87
2022-10-06T23:27:11.366Z,95.91
2022-10-06T23:29:41.897Z,96.18
2022-10-06T23:32:12.353Z,96.02
2022-10-06T23:34:43.122Z,95.99
2022-10-06T23:37:13.660Z,96.06
2022-10-06T23:39:44.679Z,96.36
2022-10-06T23:42:15.281Z,96.13
2022-10-06T23:44:45.725Z,96.48
2022-10-06T23:47:16.143Z,96.90
2022-10-06T23:49:46.628Z,97.31
2022-10-06T23:52:17.097Z,97.43
2022-10-06T23:54:47.791Z,97.36
2022-10-06T23:57:18.158Z,98.21
2022-10-06T23:59:48.532Z,98.07
